Latest Weather Observations for Carnarvon

IDW60801

Issued at 10:02 am WST Tuesday 23 December 2014 (issued every 30 minutes, with the page automatically refreshed every 10 minutes)

About weather observations | Map of weather stations | Latest weather observations for WA | Other Formats
Station Details ID: 006011 Name: CARNARVON AIRPORT Lat: -24.89 Lon: 113.67 Height: 4.0 m
Data from the previous 72 hours. | See also: Recent months at Carnarvon
Date/Time
WST
Temp
°C
App
Temp
°C
Dew
Point
Rel
Hum
%
Delta-T
°C
Wind Press
QNH
hPa
Press
MSL
hPa
Rain
since 9 am
mm
Dir
 
Spd
km/h
Gust
km/h
Spd
kts
Gust
kts
23/10:00am 27.6 25.1 18.0 55 6.1 SSW 28 35 15 19 1008.6 - 0.0
23/09:30am 26.8 24.6 18.7 61 5.2 S 28 37 15 20 1008.6 - 0.0
23/09:00am 27.2 25.5 18.2 58 5.7 S 24 32 13 17 1008.6 1008.6 0.0
23/08:30am 27.4 24.6 16.4 51 6.8 S 26 32 14 17 1008.6 - 0.0
23/08:00am 26.2 23.3 17.1 57 5.7 S 28 35 15 19 1008.4 - 0.0
23/07:30am 25.4 24.2 18.5 65 4.4 S 22 32 12 17 1008.5 - 0.0
23/07:00am 24.8 23.3 17.6 64 4.5 S 22 28 12 15 1008.3 - 0.0
23/06:30am 23.6 22.4 17.5 68 3.8 S 20 28 11 15 1008.2 - 0.0
23/06:00am 22.7 21.6 17.2 71 3.4 S 19 24 10 13 1008.0 1008.0 0.0
23/05:30am 22.5 21.1 17.1 71 3.3 S 20 26 11 14 1007.9 - 0.0
23/05:00am 22.5 21.1 17.0 71 3.4 S 20 26 11 14 1007.8 - 0.0
23/04:30am 22.6 21.2 16.9 70 3.5 S 20 26 11 14 1007.8 - 0.0
23/04:00am 23.0 21.3 17.2 70 3.6 S 22 28 12 15 1007.7 - 0.0
23/03:30am 23.1 20.6 17.1 69 3.7 S 26 35 14 19 1007.6 - 0.0
23/03:00am 23.3 20.8 17.1 68 3.8 S 26 35 14 19 1007.6 1007.6 0.0
23/02:30am 23.4 20.4 16.9 67 4.0 S 28 35 15 19 1007.8 - 0.0
23/02:00am 23.5 21.4 17.2 67 3.9 S 24 30 13 16 1008.1 - 0.0
23/01:30am 23.7 20.5 17.2 67 4.0 S 30 41 16 22 1008.1 - 0.0
23/01:00am 23.8 20.2 17.2 66 4.1 S 32 44 17 24 1008.1 - 0.0
23/12:30am 24.1 20.3 17.2 65 4.3 S 33 44 18 24 1008.1 - 0.0
23/12:00am 24.2 20.5 17.5 66 4.2 S 33 43 18 23 1008.2 1008.2 0.0
 
Date/Time
WST
Temp
°C
App
Temp
°C
Dew
Point
Rel
Hum
%
Delta-T
°C
Wind Press
QNH
hPa
Press
MSL
hPa
Rain
since 9 am
mm
Dir
 
Spd
km/h
Gust
km/h
Spd
kts
Gust
kts
22/11:30pm 24.3 20.9 17.6 66 4.2 S 32 43 17 23 1008.2 - 0.0
22/11:00pm 24.5 20.6 17.8 66 4.2 S 35 46 19 25 1008.2 - 0.0
22/10:30pm 24.8 20.6 17.2 62 4.7 S 35 50 19 27 1007.9 - 0.0
22/10:00pm 24.9 21.1 17.2 62 4.8 S 33 44 18 24 1007.7 - 0.0
22/09:30pm 25.2 21.0 17.2 61 5.0 S 35 48 19 26 1007.5 - 0.0
22/09:00pm 25.8 21.4 16.6 56 5.7 S 35 52 19 28 1007.3 1007.3 0.0
22/08:30pm 26.3 22.2 16.4 54 6.1 S 33 44 18 24 1007.3 - 0.0
22/08:00pm 26.8 22.5 16.8 54 6.2 S 35 46 19 25 1006.9 - 0.0
22/07:30pm 27.3 23.4 17.8 56 6.0 S 35 48 19 26 1006.7 - 0.0
22/07:00pm 28.1 24.0 17.3 52 6.8 S 35 48 19 26 1006.3 - 0.0
22/06:30pm 27.9 25.2 19.3 59 5.6 S 32 44 17 24 1006.1 - 0.0
22/06:00pm 28.7 26.1 19.5 57 6.0 S 32 43 17 23 1005.9 1005.9 0.0
22/05:30pm 28.4 25.7 19.7 59 5.7 S 33 43 18 23 1005.7 - 0.0
22/05:00pm 29.0 25.4 19.3 55 6.3 S 37 46 20 25 1005.7 - 0.0
22/04:30pm 29.7 26.2 18.7 51 7.1 S 35 46 19 25 1005.7 - 0.0
22/04:00pm 30.8 26.8 17.7 45 8.4 S 35 44 19 24 1005.8 - 0.0
22/03:30pm 31.4 28.0 17.7 44 8.8 S 32 39 17 21 1006.1 - 0.0
22/03:00pm 30.3 27.3 18.7 50 7.5 SSW 32 39 17 21 1006.4 1006.4 0.0
22/02:30pm 30.9 27.5 18.2 46 8.2 S 33 41 18 22 1006.6 - 0.0
22/02:00pm 32.2 27.5 16.9 40 9.7 S 37 48 20 26 1006.7 - 0.0
22/01:30pm 31.6 27.5 17.3 42 9.1 S 35 44 19 24 1006.9 - 0.0
22/01:00pm 31.7 27.7 17.5 42 9.1 S 35 46 19 25 1007.1 - 0.0
22/12:30pm 31.7 27.9 17.1 41 9.3 S 33 41 18 22 1007.4 - 0.0
22/12:00pm 31.2 27.9 18.0 45 8.5 S 32 39 17 21 1007.8 1007.8 0.0
22/11:30am 30.2 27.1 18.8 50 7.4 S 33 41 18 22 1008.1 - 0.0
22/11:00am 30.2 28.2 19.1 51 7.2 S 28 37 15 20 1008.3 - 0.0
22/10:30am 30.6 29.2 18.9 49 7.6 S 24 32 13 17 1008.5 - 0.0
22/10:15am 30.2 28.7 18.6 49 7.5 S 24 30 13 16 1008.6 - 0.0
22/10:00am 35.4 31.0 9.0 20 15.1 SE 22 35 12 19 1008.5 - 0.0
22/09:30am 34.1 29.5 8.0 20 14.6 SE 22 35 12 19 1008.5 - 0.0
22/09:00am 33.3 28.0 8.3 21 14.0 SE 26 35 14 19 1008.7 1008.7 0.0
22/08:30am 32.1 26.3 8.1 22 13.3 SE 28 39 15 21 1008.8 - 0.0
22/08:00am 30.4 23.9 8.0 24 12.3 SE 32 41 17 22 1008.8 - 0.0
22/07:30am 28.4 23.8 9.6 31 10.5 SE 24 33 13 18 1008.8 - 0.0
22/07:00am 25.8 21.9 10.9 39 8.4 SSE 22 30 12 16 1008.6 - 0.0
22/06:30am 24.3 20.7 11.8 45 7.1 SSE 22 28 12 15 1008.2 - 0.0
22/06:00am 23.0 20.1 12.9 53 5.8 SSE 20 26 11 14 1008.1 1008.1 0.0
22/05:30am 22.7 20.0 13.6 56 5.3 SSE 20 26 11 14 1007.7 - 0.0
22/05:00am 22.7 20.5 14.8 61 4.7 SSE 20 24 11 13 1007.4 - 0.0
22/04:30am 22.5 21.7 17.1 71 3.3 SSE 17 20 9 11 1007.2 - 0.0
22/04:00am 22.7 21.9 18.1 75 2.9 S 19 22 10 12 1007.2 - 0.0
22/03:30am 22.9 22.0 18.1 74 3.0 S 20 26 11 14 1007.1 - 0.0
22/03:00am 22.9 21.5 17.9 73 3.1 S 22 30 12 16 1007.0 1007.0 0.0
22/02:30am 22.8 21.4 18.0 74 3.0 S 22 26 12 14 1007.0 - 0.0
22/02:00am 22.8 21.4 18.0 74 3.0 S 22 28 12 15 1007.3 - 0.0
22/01:30am 22.8 21.8 18.0 74 3.0 S 20 26 11 14 1007.4 - 0.0
22/01:00am 23.0 21.5 18.6 76 2.8 S 24 33 13 18 1007.6 - 0.0
22/12:30am 23.2 21.4 18.8 76 2.8 S 26 35 14 19 1008.0 - 0.0
22/12:00am 23.2 21.0 18.6 75 2.9 S 28 35 15 19 1008.3 1008.3 0.0
 
Date/Time
WST
Temp
°C
App
Temp
°C
Dew
Point
Rel
Hum
%
Delta-T
°C
Wind Press
QNH
hPa
Press
MSL
hPa
Rain
since 9 am
mm
Dir
 
Spd
km/h
Gust
km/h
Spd
kts
Gust
kts
21/11:30pm 23.3 21.1 18.7 75 2.9 S 28 37 15 20 1008.4 - 0.0
21/11:00pm 23.3 21.1 18.7 75 2.9 S 28 39 15 21 1008.6 - 0.0
21/10:30pm 23.5 20.4 18.4 73 3.2 S 32 43 17 23 1008.6 - 0.0
21/10:00pm 23.6 20.9 18.5 73 3.2 S 30 39 16 21 1008.7 - 0.0
21/09:30pm 23.8 21.2 17.9 69 3.7 S 28 35 15 19 1008.7 - 0.0
21/09:00pm 24.0 21.8 18.8 72 3.3 S 28 39 15 21 1008.4 1008.4 0.0
21/08:30pm 23.8 22.0 19.6 77 2.7 SSW 28 39 15 21 1008.2 - 0.0
21/08:00pm 23.9 22.2 19.9 78 2.6 SSW 28 35 15 19 1008.1 - 0.0
21/07:30pm 24.2 21.7 19.7 76 2.9 S 32 43 17 23 1007.7 - 0.0
21/07:00pm 24.6 22.4 19.6 73 3.2 SSW 30 39 16 21 1007.6 - 0.0
21/06:30pm 25.3 22.2 19.6 70 3.7 S 35 44 19 24 1007.3 - 0.0
21/06:00pm 25.9 23.3 19.6 68 4.1 SSW 32 44 17 24 1007.4 1007.4 0.0
21/05:30pm 26.5 24.0 19.7 66 4.4 S 32 41 17 22 1007.1 - 0.0
21/05:00pm 26.8 24.5 20.1 66 4.4 SSW 32 39 17 21 1007.2 - 0.0
21/04:30pm 26.5 23.9 19.6 66 4.5 SSW 32 39 17 21 1007.4 - 0.0
21/04:00pm 26.7 23.9 19.1 63 4.9 SSW 32 37 17 20 1007.7 - 0.0
21/03:30pm 27.0 24.4 17.8 57 5.8 SSW 28 33 15 18 1008.0 - 0.0
21/03:00pm 27.5 24.7 17.3 53 6.4 SSW 28 35 15 19 1008.5 1008.5 0.0
21/02:30pm 26.5 23.2 17.0 56 5.9 SSW 30 37 16 20 1008.8 - 0.0
21/02:00pm 27.4 23.6 16.8 52 6.6 SSW 32 39 17 21 1009.0 - 0.0
21/01:30pm 26.2 23.0 17.2 57 5.6 SSW 30 37 16 20 1009.5 - 0.0
21/01:00pm 26.6 23.0 17.3 56 5.8 SSW 32 39 17 21 1010.0 - 0.0
21/12:30pm 26.9 22.2 14.4 46 7.5 S 32 39 17 21 1010.2 - 0.0
21/12:00pm 26.3 22.8 17.5 58 5.5 S 32 41 17 22 1010.7 1010.7 0.0
21/11:30am 24.9 21.2 17.4 63 4.7 S 33 41 18 22 1010.9 - 0.0
21/11:00am 25.5 21.7 17.3 60 5.1 S 33 41 18 22 1011.2 - 0.0
21/10:30am 25.5 22.2 17.0 59 5.3 S 30 41 16 22 1011.4 - 0.0
21/10:00am 25.7 21.7 15.1 52 6.4 S 30 39 16 21 1011.4 - 0.0
21/09:30am 25.0 21.1 14.4 51 6.3 SSE 28 39 15 21 1011.6 - 0.0
21/09:00am 24.3 20.4 14.5 54 5.8 SSE 28 39 15 21 1011.7 1011.7 0.0
21/08:30am 23.3 18.9 15.1 60 4.9 SSE 32 43 17 23 1011.5 - 0.0
21/08:00am 22.0 17.5 15.5 66 3.9 SSE 33 43 18 23 1011.5 - 0.0
21/07:30am 21.7 17.4 15.5 68 3.7 SSE 32 41 17 22 1011.5 - 0.0
21/07:00am 20.8 17.1 15.0 69 3.4 SSE 28 35 15 19 1011.5 - 0.0
21/06:30am 20.0 17.2 15.4 75 2.7 SSE 24 33 13 18 1011.2 - 0.0
21/06:00am 19.4 17.0 15.5 78 2.3 SSE 22 28 12 15 1011.1 1011.1 0.0
21/05:30am 19.3 15.8 15.6 79 2.2 S 28 35 15 19 1010.7 - 0.0
21/05:00am 19.3 15.3 15.2 77 2.4 S 30 39 16 21 1010.5 - 0.0
21/04:30am 19.4 15.3 15.0 75 2.6 SSE 30 37 16 20 1010.4 - 0.0
21/04:00am 19.6 15.5 15.0 75 2.7 SSE 30 43 16 23 1010.2 - 0.0
21/03:30am 19.9 16.5 15.7 77 2.5 SSE 28 39 15 21 1010.1 - 0.0
21/03:00am 20.2 16.9 16.0 77 2.5 S 28 39 15 21 1010.0 1010.0 0.0
21/02:30am 20.4 17.7 16.6 79 2.3 S 26 33 14 18 1010.1 - 0.0
21/02:00am 20.7 17.7 16.9 79 2.3 S 28 37 15 20 1010.2 - 0.0
21/01:30am 20.8 16.9 17.0 79 2.3 S 33 43 18 23 1010.1 - 0.0
21/01:00am 20.8 16.5 16.9 78 2.4 S 35 46 19 25 1010.2 - 0.0
21/12:30am 21.0 17.1 16.9 77 2.5 S 33 44 18 24 1010.3 - 0.0
21/12:00am 21.2 17.0 17.1 77 2.5 S 35 44 19 24 1010.5 1010.5 0.0
 
Date/Time
WST
Temp
°C
App
Temp
°C
Dew
Point
Rel
Hum
%
Delta-T
°C
Wind Press
QNH
hPa
Press
MSL
hPa
Rain
since 9 am
mm
Dir
 
Spd
km/h
Gust
km/h
Spd
kts
Gust
kts
20/11:30pm 21.4 16.8 17.0 76 2.7 S 37 46 20 25 1010.6 - 0.0
20/11:00pm 21.6 17.7 16.5 73 3.1 S 32 43 17 23 1010.9 - 0.0
20/10:30pm 21.9 18.0 16.5 71 3.3 S 32 46 17 25 1010.9 - 0.0
20/10:00pm 22.0 17.4 16.2 69 3.5 S 35 48 19 26 1010.9 - 0.0
20/09:30pm 22.0 18.0 17.6 76 2.7 S 35 48 19 26 1010.7 - 0.0
20/09:00pm 22.2 17.7 17.3 74 3.0 S 37 48 20 26 1010.5 1010.5 0.0
20/08:30pm 22.6 18.4 17.2 71 3.3 S 35 44 19 24 1010.3 - 0.0
20/08:00pm 22.9 18.4 16.5 67 3.9 S 35 46 19 25 1010.1 - 0.0
20/07:30pm 22.8 19.0 18.2 75 2.9 SSW 35 44 19 24 1009.8 - 0.0
20/07:00pm 23.2 19.9 18.3 74 3.1 S 33 44 18 24 1009.6 - 0.0
20/06:30pm 23.3 19.2 18.2 73 3.2 SSW 37 46 20 25 1009.5 - 0.0
20/06:00pm 23.9 19.2 17.8 68 3.8 SSW 39 52 21 28 1009.4 1009.4 0.0
20/05:30pm 23.6 18.5 17.7 69 3.7 SSW 41 52 22 28 1009.4 - 0.0
20/05:00pm 24.8 20.4 17.6 64 4.5 SSW 37 46 20 25 1009.5 - 0.0
20/04:30pm 25.3 20.5 17.5 62 4.9 SSW 39 50 21 27 1009.7 - 0.0
20/04:00pm 25.2 20.2 17.0 60 5.1 SSW 39 50 21 27 1010.0 - 0.0
20/03:30pm 25.4 20.4 17.0 59 5.2 SSW 39 48 21 26 1010.3 - 0.0
20/03:00pm 24.8 19.7 16.9 61 4.9 SSW 39 50 21 27 1010.5 1010.5 0.0
20/02:30pm 25.6 20.5 16.7 58 5.5 SSW 39 48 21 26 1010.6 - 0.0
20/02:00pm 25.6 20.5 16.7 58 5.5 SSW 39 46 21 25 1010.9 - 0.0
20/01:30pm 25.6 20.8 16.5 57 5.6 SSW 37 46 20 25 1011.1 - 0.0
20/01:00pm 25.3 20.8 16.3 57 5.5 SSW 35 48 19 26 1011.3 - 0.0
20/12:30pm 25.4 20.6 15.7 55 5.9 SSW 35 44 19 24 1011.7 - 0.0
20/12:00pm 24.9 20.3 16.0 57 5.4 SSW 35 44 19 24 1012.1 1012.1 0.0
20/11:30am 25.9 21.7 16.3 55 5.9 S 33 43 18 23 1012.1 - 0.0
20/11:00am 25.1 20.9 16.1 57 5.5 S 33 44 18 24 1012.3 - 0.0
20/10:30am 24.8 20.9 16.5 60 5.1 S 32 39 17 21 1012.6 - 0.0

Other Formats:

Comma delimited format used in spreadsheet applications
http://www.bom.gov.au/fwo/IDW60801/IDW60801.94300.axf

JavaScript Object Notation format (JSON) in row-major order
http://www.bom.gov.au/fwo/IDW60801/IDW60801.94300.json